createdAt,value
2022-08-09T00:00:56.247Z,3.85
2022-08-09T00:04:00.600Z,6.82
2022-08-09T00:06:18.916Z,4.85
2022-08-09T00:08:51.749Z,4.88
2022-08-09T00:11:24.998Z,2.58
2022-08-09T00:13:52.604Z,2.90
2022-08-09T00:16:26.368Z,3.05
2022-08-09T00:19:09.519Z,2.83
2022-08-09T00:21:43.346Z,3.38
2022-08-09T00:24:22.779Z,2.70
2022-08-09T00:26:51.902Z,4.57
2022-08-09T00:29:39.165Z,5.78
2022-08-09T00:32:06.731Z,5.03
2022-08-09T00:34:33.709Z,3.92
2022-08-09T00:37:00.676Z,3.47
2022-08-09T00:40:12.188Z,3.25
2022-08-09T00:44:10.922Z,3.10
2022-08-09T00:45:15.905Z,3.42
2022-08-09T00:47:43.974Z,9.13
2022-08-09T00:50:14.632Z,2.67
2022-08-09T00:52:42.623Z,2.83
2022-08-09T00:55:32.740Z,4.32
2022-08-09T00:57:59.149Z,4.15
2022-08-09T01:00:27.407Z,3.58
2022-08-09T01:03:20.289Z,3.75
2022-08-09T01:05:57.363Z,3.25
2022-08-09T01:09:24.829Z,5.45
2022-08-09T01:12:30.374Z,3.30
2022-08-09T01:15:22.916Z,3.20
2022-08-09T01:18:02.990Z,7.55
2022-08-09T01:20:53.437Z,4.80
2022-08-09T01:24:02.623Z,4.72
2022-08-09T01:26:53.590Z,3.38
2022-08-09T01:29:40.997Z,3.97
2022-08-09T01:32:31.790Z,3.40
2022-08-09T01:35:29.066Z,5.47
2022-08-09T01:38:09.273Z,4.18
2022-08-09T01:40:45.097Z,5.03
2022-08-09T01:43:21.783Z,7.60
2022-08-09T01:45:54.139Z,6.82
2022-08-09T01:48:29.644Z,7.40
2022-08-09T01:50:59.854Z,4.97
2022-08-09T01:53:29.191Z,4.72
2022-08-09T01:56:10.088Z,5.38
2022-08-09T01:58:38.013Z,2.72
2022-08-09T02:01:06.679Z,2.47
2022-08-09T02:03:37.244Z,9.27
2022-08-09T02:06:07.411Z,4.22
2022-08-09T02:08:57.780Z,4.30
2022-08-09T02:11:42.539Z,4.10
2022-08-09T02:14:15.106Z,3.67
2022-08-09T02:16:59.968Z,7.82
2022-08-09T02:19:38.872Z,2.67
2022-08-09T02:22:31.801Z,7.50
2022-08-09T02:25:15.180Z,4.60
2022-08-09T02:28:00.343Z,3.75
2022-08-09T02:30:41.381Z,5.35
2022-08-09T02:33:16.828Z,5.10
2022-08-09T02:36:02.596Z,3.42
2022-08-09T02:38:47.661Z,4.28
2022-08-09T02:41:29.111Z,5.43
2022-08-09T02:44:10.562Z,6.30
2022-08-09T02:46:52.203Z,3.60
2022-08-09T02:49:19.809Z,5.63
2022-08-09T02:51:58.109Z,3.42
2022-08-09T02:54:28.552Z,2.58
2022-08-09T02:57:01.861Z,3.47
2022-08-09T03:00:20.567Z,2.53
2022-08-09T03:02:31.357Z,3.03
2022-08-09T03:05:00.827Z,8.25
2022-08-09T03:07:29.281Z,3.53
2022-08-09T03:10:00.471Z,9.15
2022-08-09T03:12:28.877Z,4.45
2022-08-09T03:14:57.432Z,7.43
2022-08-09T03:17:26.535Z,4.22
2022-08-09T03:20:03.457Z,5.50
2022-08-09T03:22:41.923Z,5.57
2022-08-09T03:25:25.815Z,6.45
2022-08-09T03:28:03.948Z,6.97
2022-08-09T03:30:33.912Z,4.40
2022-08-09T03:33:17.716Z,5.10
2022-08-09T03:36:13.536Z,5.82
2022-08-09T03:38:42.139Z,6.05
2022-08-09T03:41:15.698Z,5.20
2022-08-09T03:44:03.078Z,6.13
2022-08-09T03:46:32.974Z,8.43
2022-08-09T03:49:04.390Z,4.07
2022-08-09T03:51:57.588Z,3.28
2022-08-09T03:54:32.433Z,4.90
2022-08-09T03:57:04.252Z,4.70
2022-08-09T03:59:53.536Z,6.18
2022-08-09T04:02:30.313Z,3.63
2022-08-09T04:05:05.854Z,6.20
2022-08-09T04:07:52.843Z,4.63
2022-08-09T04:10:29.048Z,3.85
2022-08-09T04:12:58.151Z,4.00
2022-08-09T04:15:52.326Z,5.07
2022-08-09T04:18:16.549Z,3.10
2022-08-09T04:20:47.250Z,4.50
2022-08-09T04:23:17.270Z,7.30
2022-08-09T04:25:51.842Z,4.18
2022-08-09T04:28:31.869Z,4.90
2022-08-09T04:31:05.846Z,3.53
2022-08-09T04:33:53.207Z,5.15
2022-08-09T04:36:28.121Z,6.10
2022-08-09T04:38:59.242Z,5.22
2022-08-09T04:41:33.077Z,5.25
2022-08-09T04:44:06.887Z,4.80
2022-08-09T04:46:58.079Z,4.47
2022-08-09T04:49:40.616Z,5.95
2022-08-09T04:52:18.363Z,4.78
2022-08-09T04:55:02.271Z,7.13
2022-08-09T04:57:59.398Z,8.52
2022-08-09T05:00:19.149Z,7.43
2022-08-09T05:02:51.620Z,6.30
2022-08-09T05:05:31.979Z,9.95
2022-08-09T05:08:08.013Z,5.40
2022-08-09T05:10:36.848Z,8.18
2022-08-09T05:13:04.250Z,4.95
2022-08-09T05:15:39.150Z,6.38
2022-08-09T05:18:39.414Z,5.93
2022-08-09T05:21:02.181Z,9.18
2022-08-09T05:23:55.604Z,9.85
2022-08-09T05:26:26.658Z,8.75
2022-08-09T05:29:03.454Z,7.88
2022-08-09T05:31:44.479Z,8.52
2022-08-09T05:34:16.544Z,10.13
2022-08-09T05:36:48.738Z,14.05
2022-08-09T05:39:28.903Z,9.50
2022-08-09T05:42:01.665Z,11.30
2022-08-09T05:44:34.599Z,16.00
2022-08-09T05:47:04.877Z,12.38
2022-08-09T05:50:25.888Z,14.65
2022-08-09T05:52:22.239Z,13.50
2022-08-09T05:54:51.979Z,11.57
2022-08-09T05:57:19.443Z,11.95
2022-08-09T05:59:52.454Z,15.98
2022-08-09T06:02:20.103Z,13.90
2022-08-09T06:04:48.981Z,13.60
2022-08-09T06:07:21.090Z,12.05
2022-08-09T06:10:02.303Z,14.85
2022-08-09T06:12:31.527Z,10.65
2022-08-09T06:15:01.359Z,12.85
2022-08-09T06:17:40.096Z,10.70
2022-08-09T06:20:08.921Z,16.15
2022-08-09T06:22:36.697Z,12.82
2022-08-09T06:25:04.363Z,15.20
2022-08-09T06:27:43.083Z,12.75
2022-08-09T06:30:18.837Z,10.38
2022-08-09T06:33:00.647Z,10.43
2022-08-09T06:35:55.960Z,10.75
2022-08-09T06:38:31.896Z,12.90
2022-08-09T06:41:04.931Z,12.75
2022-08-09T06:43:46.736Z,11.57
2022-08-09T06:46:40.248Z,13.23
2022-08-09T06:49:01.677Z,10.23
2022-08-09T06:51:29.251Z,12.50
2022-08-09T06:54:00.836Z,13.35
2022-08-09T06:56:30.691Z,10.45
2022-08-09T07:00:49.990Z,8.63
2022-08-09T07:01:53.702Z,10.00
2022-08-09T07:04:25.082Z,14.63
2022-08-09T07:07:00.029Z,9.82
2022-08-09T07:09:53.696Z,7.30
2022-08-09T07:12:18.059Z,7.72
2022-08-09T07:14:51.330Z,9.23
2022-08-09T07:17:20.222Z,10.90
2022-08-09T07:19:50.983Z,13.68
2022-08-09T07:22:27.226Z,12.48
2022-08-09T07:25:10.471Z,9.05
2022-08-09T07:27:42.959Z,10.13
2022-08-09T07:30:21.778Z,12.68
2022-08-09T07:32:52.541Z,6.75
2022-08-09T07:35:19.691Z,6.40
2022-08-09T07:37:49.256Z,7.63
2022-08-09T07:40:20.609Z,8.98
2022-08-09T07:43:00.055Z,6.20
2022-08-09T07:45:37.989Z,5.82
2022-08-09T07:48:28.898Z,13.70
2022-08-09T07:51:09.423Z,4.53
2022-08-09T07:54:05.816Z,5.15
2022-08-09T07:56:33.811Z,4.40
2022-08-09T07:59:03.656Z,5.43
2022-08-09T08:01:34.108Z,3.47
2022-08-09T08:04:03.348Z,3.55
2022-08-09T08:06:32.042Z,3.72
2022-08-09T08:09:05.020Z,2.45
2022-08-09T08:12:23.864Z,2.92
2022-08-09T08:14:24.267Z,3.95
2022-08-09T08:17:07.593Z,3.75
2022-08-09T08:19:35.462Z,4.28
2022-08-09T08:22:06.249Z,6.40
2022-08-09T08:24:40.076Z,2.95
2022-08-09T08:27:16.555Z,5.55
2022-08-09T08:29:48.514Z,4.53
2022-08-09T08:32:24.215Z,3.35
2022-08-09T08:34:58.846Z,3.97
2022-08-09T08:37:41.689Z,3.00
2022-08-09T08:40:15.776Z,2.83
2022-08-09T08:42:47.367Z,2.67
2022-08-09T08:45:16.904Z,3.85
2022-08-09T08:48:00.198Z,1.98
2022-08-09T08:50:27.750Z,6.28
2022-08-09T08:52:59.036Z,2.40
2022-08-09T08:55:28.324Z,4.25
2022-08-09T08:57:59.167Z,1.88
2022-08-09T09:00:34.704Z,1.60
2022-08-09T09:03:08.295Z,1.48
2022-08-09T09:05:58.425Z,1.55
2022-08-09T09:08:29.709Z,2.40
2022-08-09T09:13:55.561Z,2.63
2022-08-09T09:16:30.458Z,2.95
2022-08-09T09:22:03.993Z,1.27
2022-08-09T09:24:43.417Z,5.00
2022-08-09T09:27:47.260Z,4.47
2022-08-09T09:30:39.000Z,3.50
2022-08-09T09:33:16.554Z,2.65
2022-08-09T09:36:20.069Z,1.38
2022-08-09T09:38:52.566Z,2.22
2022-08-09T09:41:26.374Z,0.68
2022-08-09T09:44:11.400Z,3.17
2022-08-09T09:49:32.269Z,3.65
2022-08-09T09:52:16.759Z,0.50
2022-08-09T09:55:24.468Z,4.30
2022-08-09T09:58:19.103Z,1.05
2022-08-09T10:00:58.867Z,0.40
2022-08-09T10:03:44.456Z,4.90
2022-08-09T10:06:12.898Z,0.30
2022-08-09T10:08:44.256Z,2.05
2022-08-09T10:11:59.862Z,3.33
2022-08-09T10:14:27.642Z,2.15
2022-08-09T10:17:24.056Z,4.25
2022-08-09T10:19:45.799Z,1.38
2022-08-09T10:22:13.214Z,0.75
2022-08-09T10:24:40.848Z,0.75
2022-08-09T10:27:10.112Z,3.20
2022-08-09T10:30:30.013Z,1.70
2022-08-09T10:32:48.427Z,1.85
2022-08-09T10:35:15.659Z,2.53
2022-08-09T10:37:44.586Z,2.30
2022-08-09T10:40:33.517Z,1.20
2022-08-09T10:43:01.631Z,3.38
2022-08-09T10:45:31.774Z,0.93
2022-08-09T10:48:30.423Z,1.27
2022-08-09T10:51:40.835Z,2.60
2022-08-09T10:54:12.197Z,14.20
2022-08-09T10:56:41.824Z,1.52
2022-08-09T10:59:30.745Z,2.05
2022-08-09T11:03:27.952Z,4.15
2022-08-09T11:05:25.461Z,0.45
2022-08-09T11:07:59.353Z,1.52
2022-08-09T11:10:54.863Z,6.70
2022-08-09T11:13:50.743Z,2.47
2022-08-09T11:16:37.416Z,5.43
2022-08-09T11:19:09.394Z,0.32
2022-08-09T11:21:56.901Z,1.75
2022-08-09T11:25:08.148Z,2.10
2022-08-09T11:28:05.121Z,3.05
2022-08-09T11:30:33.399Z,1.02
2022-08-09T11:33:24.611Z,2.75
2022-08-09T11:36:01.629Z,1.42
2022-08-09T11:38:34.932Z,0.82
2022-08-09T11:41:13.173Z,8.15
2022-08-09T11:43:44.553Z,0.75
2022-08-09T11:46:12.162Z,1.70
2022-08-09T11:48:56.940Z,2.22
2022-08-09T11:53:03.991Z,0.43
2022-08-09T11:54:28.346Z,0.60
2022-08-09T11:57:47.355Z,1.25
2022-08-09T12:00:30.937Z,1.75
2022-08-09T12:03:00.527Z,0.75
2022-08-09T12:05:49.010Z,1.17
2022-08-09T12:08:21.532Z,0.75
2022-08-09T12:11:00.028Z,1.10
2022-08-09T12:14:09.052Z,1.05
2022-08-09T12:16:43.051Z,2.63
2022-08-09T12:19:13.117Z,0.68
2022-08-09T12:21:50.808Z,1.20
2022-08-09T12:24:25.720Z,1.98
2022-08-09T12:29:13.367Z,0.50
2022-08-09T12:30:01.562Z,0.40
2022-08-09T12:35:12.661Z,0.88
2022-08-09T12:37:51.451Z,0.40
2022-08-09T12:40:24.532Z,1.73
2022-08-09T12:42:52.214Z,0.63
2022-08-09T12:45:34.298Z,2.55
2022-08-09T12:48:31.095Z,2.28
2022-08-09T12:50:59.797Z,2.75
2022-08-09T12:53:44.873Z,0.28
2022-08-09T12:56:40.010Z,0.60
2022-08-09T12:59:21.205Z,1.60
2022-08-09T13:01:58.347Z,4.82
2022-08-09T13:04:36.199Z,0.70
2022-08-09T13:07:16.776Z,2.97
2022-08-09T13:09:55.845Z,1.13
2022-08-09T13:12:29.288Z,0.63
2022-08-09T13:15:09.907Z,2.20
2022-08-09T13:17:58.628Z,2.70
2022-08-09T13:20:37.510Z,2.10
2022-08-09T13:24:16.162Z,1.55
2022-08-09T13:26:50.242Z,3.53
2022-08-09T13:29:28.540Z,1.65
2022-08-09T13:32:19.325Z,2.20
2022-08-09T13:34:52.855Z,1.55
2022-08-09T13:37:51.271Z,1.42
2022-08-09T13:41:50.637Z,2.40
2022-08-09T13:42:56.594Z,1.17
2022-08-09T13:45:32.179Z,0.55
2022-08-09T13:48:10.950Z,1.55
2022-08-09T13:50:38.046Z,0.63
2022-08-09T13:53:07.409Z,1.83
2022-08-09T13:55:34.914Z,1.60
2022-08-09T13:58:04.919Z,0.70
2022-08-09T14:00:36.582Z,1.45
2022-08-09T14:04:02.758Z,0.28
2022-08-09T14:06:02.984Z,0.68
2022-08-09T14:08:31.359Z,3.40
2022-08-09T14:11:01.214Z,1.23
2022-08-09T14:14:22.658Z,1.45
2022-08-09T14:16:28.122Z,2.40
2022-08-09T14:18:57.315Z,2.63
2022-08-09T14:21:29.591Z,1.85
2022-08-09T14:24:01.293Z,2.25
2022-08-09T14:26:37.703Z,3.25
2022-08-09T14:29:25.708Z,2.70
2022-08-09T14:31:55.821Z,5.20
2022-08-09T14:34:31.328Z,0.63
2022-08-09T14:37:06.433Z,0.82
2022-08-09T14:39:47.419Z,0.63
2022-08-09T14:42:32.158Z,1.92
2022-08-09T14:46:39.116Z,0.80
2022-08-09T14:48:00.211Z,0.35
2022-08-09T14:50:34.285Z,0.95
2022-08-09T14:53:06.330Z,0.73
2022-08-09T14:55:42.042Z,0.82
2022-08-09T14:58:09.958Z,1.85
2022-08-09T15:00:38.037Z,1.90
2022-08-09T15:03:10.567Z,3.30
2022-08-09T15:05:38.886Z,2.80
2022-08-09T15:08:10.344Z,1.15
2022-08-09T15:10:38.713Z,3.38
2022-08-09T15:13:08.799Z,1.55
2022-08-09T15:15:39.269Z,2.75
2022-08-09T15:18:12.254Z,1.58
2022-08-09T15:22:00.506Z,2.47
2022-08-09T15:24:00.955Z,3.13
2022-08-09T15:26:18.404Z,0.68
2022-08-09T15:28:54.777Z,4.68
2022-08-09T15:31:22.302Z,0.38
2022-08-09T15:34:18.401Z,0.77
2022-08-09T15:36:48.227Z,1.17
2022-08-09T15:39:17.164Z,2.05
2022-08-09T15:41:50.409Z,1.25
2022-08-09T15:44:23.142Z,1.98
2022-08-09T15:46:50.186Z,1.27
2022-08-09T15:49:22.580Z,1.27
2022-08-09T15:52:04.530Z,1.00
2022-08-09T15:54:46.297Z,1.27
2022-08-09T15:57:34.018Z,0.93
2022-08-09T16:00:25.222Z,2.65
2022-08-09T16:02:56.077Z,2.38
2022-08-09T16:05:47.337Z,2.85
2022-08-09T16:08:24.698Z,1.75
2022-08-09T16:11:02.481Z,2.10
2022-08-09T16:14:03.664Z,0.52
2022-08-09T16:16:19.866Z,1.83
2022-08-09T16:18:47.951Z,0.32
2022-08-09T16:21:17.273Z,2.08
2022-08-09T16:23:58.784Z,0.90
2022-08-09T16:26:33.609Z,0.65
2022-08-09T16:29:11.603Z,1.27
2022-08-09T16:32:19.749Z,1.90
2022-08-09T16:34:54.386Z,0.82
2022-08-09T16:37:53.351Z,1.42
2022-08-09T16:40:10.262Z,2.72
2022-08-09T16:42:38.219Z,1.02
2022-08-09T16:45:07.046Z,1.83
2022-08-09T16:48:42.405Z,2.13
2022-08-09T16:50:32.337Z,3.40
2022-08-09T16:53:02.647Z,2.00
2022-08-09T16:55:57.716Z,2.53
2022-08-09T16:58:19.503Z,1.35
2022-08-09T17:00:49.024Z,0.45
2022-08-09T17:03:21.493Z,1.83
2022-08-09T17:06:08.094Z,1.33
2022-08-09T17:08:45.871Z,0.70
2022-08-09T17:11:40.655Z,2.13
2022-08-09T17:14:26.676Z,1.73
2022-08-09T17:17:02.153Z,0.70
2022-08-09T17:20:05.147Z,3.97
2022-08-09T17:22:25.087Z,2.47
2022-08-09T17:25:03.263Z,3.75
2022-08-09T17:27:37.507Z,3.13
2022-08-09T17:30:12.763Z,0.60
2022-08-09T17:32:40.276Z,0.95
2022-08-09T17:35:13.321Z,0.35
2022-08-09T17:38:10.224Z,1.20
2022-08-09T17:40:36.821Z,2.53
2022-08-09T17:43:32.296Z,2.15
2022-08-09T17:46:03.653Z,0.90
2022-08-09T17:48:32.720Z,1.27
2022-08-09T17:51:09.564Z,0.90
2022-08-09T17:53:48.236Z,3.00
2022-08-09T17:56:18.746Z,2.22
2022-08-09T17:58:47.949Z,1.05
2022-08-09T18:01:22.111Z,1.70
2022-08-09T18:06:30.978Z,1.30
2022-08-09T18:09:06.628Z,0.65
2022-08-09T18:12:05.903Z,4.65
2022-08-09T18:14:25.945Z,3.70
2022-08-09T18:16:53.701Z,0.93
2022-08-09T18:20:54.197Z,2.90
2022-08-09T18:22:16.748Z,1.70
2022-08-09T18:24:46.298Z,0.40
2022-08-09T18:27:18.843Z,0.60
2022-08-09T18:30:36.363Z,0.88
2022-08-09T18:32:54.343Z,3.55
2022-08-09T18:35:59.441Z,2.35
2022-08-09T18:38:09.884Z,1.42
2022-08-09T18:40:38.995Z,0.43
2022-08-09T18:43:05.988Z,1.73
2022-08-09T18:46:51.471Z,3.92
2022-08-09T18:48:20.336Z,2.63
2022-08-09T18:50:47.410Z,0.95
2022-08-09T18:53:17.274Z,0.63
2022-08-09T18:55:55.949Z,3.38
2022-08-09T18:58:32.487Z,4.65
2022-08-09T19:01:00.869Z,4.55
2022-08-09T19:03:28.712Z,1.00
2022-08-09T19:06:03.495Z,3.47
2022-08-09T19:08:31.993Z,2.08
2022-08-09T19:10:59.132Z,2.72
2022-08-09T19:13:38.592Z,1.35
2022-08-09T19:16:13.253Z,3.25
2022-08-09T19:18:48.716Z,1.58
2022-08-09T19:21:16.743Z,1.67
2022-08-09T19:24:36.524Z,1.77
2022-08-09T19:26:40.188Z,5.80
2022-08-09T19:29:18.474Z,1.55
2022-08-09T19:31:51.439Z,8.98
2022-08-09T19:34:22.506Z,1.25
2022-08-09T19:36:54.834Z,1.45
2022-08-09T19:39:43.744Z,3.53
2022-08-09T19:42:14.480Z,2.95
2022-08-09T19:44:42.977Z,6.82
2022-08-09T19:47:11.075Z,3.83
2022-08-09T19:50:10.077Z,9.10
2022-08-09T19:52:27.190Z,1.35
2022-08-09T19:54:55.559Z,2.05
2022-08-09T19:57:25.783Z,0.70
2022-08-09T20:00:06.487Z,1.33
2022-08-09T20:04:11.032Z,0.65
2022-08-09T20:05:25.253Z,2.85
2022-08-09T20:07:59.619Z,0.80
2022-08-09T20:10:36.702Z,3.42
2022-08-09T20:13:07.002Z,1.70
2022-08-09T20:16:33.263Z,4.97
2022-08-09T20:18:28.141Z,0.70
2022-08-09T20:20:56.290Z,2.30
2022-08-09T20:23:24.435Z,1.48
2022-08-09T20:26:07.135Z,0.75
2022-08-09T20:28:48.559Z,2.05
2022-08-09T20:31:18.509Z,1.15
2022-08-09T20:33:46.963Z,1.23
2022-08-09T20:36:27.166Z,0.50
2022-08-09T20:39:29.155Z,0.38
2022-08-09T20:41:42.169Z,0.75
2022-08-09T20:44:10.570Z,0.57
2022-08-09T20:46:44.205Z,4.28
2022-08-09T20:49:14.104Z,2.15
2022-08-09T20:51:44.216Z,1.85
2022-08-09T20:54:17.023Z,1.63
2022-08-09T20:56:46.901Z,1.73
2022-08-09T20:59:17.199Z,1.10
2022-08-09T21:01:50.302Z,0.60
2022-08-09T21:05:54.407Z,3.58
2022-08-09T21:07:13.073Z,2.50
2022-08-09T21:09:45.567Z,1.27
2022-08-09T21:14:43.135Z,0.63
2022-08-09T21:18:23.094Z,0.90
2022-08-09T21:20:22.831Z,0.68
2022-08-09T21:22:54.396Z,1.35
2022-08-09T21:25:44.317Z,7.53
2022-08-09T21:28:34.513Z,3.60
2022-08-09T21:31:13.693Z,3.05
2022-08-09T21:33:44.072Z,2.20
2022-08-09T21:36:11.643Z,4.80
2022-08-09T21:38:39.575Z,0.77
2022-08-09T21:41:08.234Z,0.70
2022-08-09T21:43:56.766Z,0.77
2022-08-09T21:46:24.222Z,0.88
2022-08-09T21:48:52.693Z,2.85
2022-08-09T21:51:24.033Z,2.00
2022-08-09T21:53:54.990Z,1.42
2022-08-09T21:56:43.332Z,0.88
2022-08-09T21:59:10.379Z,0.70
2022-08-09T22:01:44.833Z,1.17
2022-08-09T22:04:55.816Z,3.83
2022-08-09T22:07:12.235Z,0.80
2022-08-09T22:09:43.567Z,0.68
2022-08-09T22:12:18.096Z,2.35
2022-08-09T22:14:46.384Z,0.88
2022-08-09T22:17:13.534Z,2.15
2022-08-09T22:19:58.517Z,0.60
2022-08-09T22:22:28.473Z,1.55
2022-08-09T22:26:05.557Z,0.60
2022-08-09T22:27:42.739Z,0.63
2022-08-09T22:30:10.984Z,0.90
2022-08-09T22:32:38.513Z,4.68
2022-08-09T22:36:01.343Z,1.00
2022-08-09T22:38:06.570Z,1.85
2022-08-09T22:40:35.146Z,2.33
2022-08-09T22:43:16.249Z,3.53
2022-08-09T22:48:15.096Z,1.33
2022-08-09T22:48:36.867Z,0.50
2022-08-09T22:51:10.674Z,1.80
2022-08-09T22:54:02.431Z,1.20
2022-08-09T22:56:33.991Z,1.65
2022-08-09T22:59:06.088Z,3.17
2022-08-09T23:01:51.145Z,0.60
2022-08-09T23:04:18.534Z,2.53
2022-08-09T23:07:11.180Z,0.70
2022-08-09T23:09:39.496Z,1.60
2022-08-09T23:12:06.717Z,3.33
2022-08-09T23:14:41.747Z,0.70
2022-08-09T23:17:10.563Z,1.40
2022-08-09T23:20:00.927Z,1.77
2022-08-09T23:22:25.411Z,2.83
2022-08-09T23:24:53.146Z,0.70
2022-08-09T23:27:20.053Z,2.92
2022-08-09T23:29:46.992Z,0.80
2022-08-09T23:32:14.172Z,2.35
2022-08-09T23:34:41.174Z,2.38
2022-08-09T23:37:08.540Z,2.03
2022-08-09T23:39:35.764Z,0.80
2022-08-09T23:42:02.746Z,0.52
2022-08-09T23:44:29.857Z,0.95
2022-08-09T23:46:57.664Z,0.80
2022-08-09T23:49:26.108Z,1.90
2022-08-09T23:51:54.081Z,0.82
2022-08-09T23:54:26.426Z,0.50
2022-08-09T23:56:56.392Z,1.35
2022-08-09T23:59:25.995Z,1.00
